ウラジオストク の空港の天気 - METARとTAF

ウラジオストク空港 ( UHWW / VVO ) - ロシア ウラジオストク
飛行場実況気象(Metar)
観測時間04/27 14:30 VLAT (04/27 04:30 UTC)
風向・風速北北西 6m/s
視程10km以上
天気現象
なし
気温16℃
湿度10%
気圧1012hPa
METARUHWW 270430Z 34006MPS 310V040 9999 NSC 16/M16 Q1012 R07R/0///70 NOSIG RMK QFE758
過去の天気等 Google飛行場航空写真 Wunderground天気予報

過去48時間のMETAR

飛行場予報(TAF)
発表時間: 4/27 12:00 VLAT (4/27 02:00 UTC)
予報対象時間: 27日13時 VLAT ~ 28日13時 VLAT
風向・風速北北東 6m/s
視程10km以上
全天の4割程度の雲 雲底高度 910m
27日13時 VLAT ~ 27日19時 VLAT に一時的に
風向・風速北北東 10m/s 瞬間風速 15m/s
全天の4割程度の雲 雲底高度 610m
27日19時 VLAT ~ 27日21時 VLAT に徐々に
風向・風速西南西 3m/s
なし
TAF UHWW 270200Z 2703/2803 02006MPS 9999 SCT030
TEMPO 2703/2709 02010G15MPS SCT020
BECMG 2709/2711 24003MPS NSC